This is the latest recevied weather packets stored in our database for station/object KB4RFE. If no packets are shown the sender has not sent any weather packets the latest 10 day(s).
| Time | Temp. | Humidity | Pressure | Rain* | Wind** | Luminosity | Snow |
|---|---|---|---|---|---|---|---|
| 1777141655 | 26.11° C | 71% | 1013.1 hPa | 0 mm | - | 796 W/m² | - |
| 1777141353 | 26.11° C | 70% | 1013.3 hPa | 0 mm | - | 956 W/m² | - |
| 1777141049 | 25.56° C | 68% | 1013.1 hPa | 0 mm | - | 971 W/m² | - |
| 1777140747 | 24.44° C | 74% | 1013.3 hPa | 0 mm | - | 566 W/m² | - |
| 1777140443 | 25° C | 73% | 1013.2 hPa | 0 mm | - | 436 W/m² | - |
| 1777140141 | 25.56° C | 69% | 1013.3 hPa | 0 mm | - | 499 W/m² | - |
| 1777139838 | 25.56° C | 71% | 1013.2 hPa | 0 mm | - | 942 W/m² | - |
| 1777139535 | 25.56° C | 70% | 1013.5 hPa | 0 mm | - | 985 W/m² | - |
| 1777139235 | 25° C | 72% | 1013.3 hPa | 0 mm | - | 939 W/m² | - |
| 1777138933 | 25.56° C | 70% | 1013.2 hPa | 0 mm | - | 379 W/m² | - |
| 1777138629 | 26.11° C | 70% | 1013.3 hPa | 0 mm | - | 911 W/m² | - |
| 1777138324 | 25.56° C | 72% | 1013.3 hPa | 0 mm | - | 888 W/m² | - |
| 1777138021 | 25.56° C | 73% | 1013.3 hPa | 0 mm | - | 850 W/m² | - |
| 1777137716 | 26.11° C | 70% | 1013.4 hPa | 0 mm | - | 883 W/m² | - |
| 1777137413 | 26.11° C | 69% | 1013.4 hPa | 0 mm | - | 900 W/m² | - |
| 1777137109 | 26.67° C | 70% | 1013.3 hPa | 0 mm | - | 869 W/m² | - |
| 1777136807 | 26.67° C | 70% | 1013.5 hPa | 0 mm | - | 880 W/m² | - |
| 1777136504 | 26.11° C | 71% | 1013.5 hPa | 0 mm | - | 890 W/m² | - |
| 1777136201 | 26.67° C | 70% | 1013.3 hPa | 0 mm | - | 930 W/m² | - |
| 1777135898 | 26.11° C | 72% | 1013.3 hPa | 0 mm | - | 907 W/m² | - |
| 1777135593 | 26.67° C | 69% | 1013.5 hPa | 0 mm | - | 888 W/m² | - |
| 1777135290 | 26.11° C | 71% | 1013.4 hPa | 0 mm | - | 866 W/m² | - |
| 1777134987 | 26.11° C | 73% | 1013.4 hPa | 0 mm | - | 852 W/m² | - |
* Rain latest hour (hover to see other rain measurements)
** Current wind speed in m/s (hover to see current wind gust speed)